Duxbury, Massachusetts
Current Conditions -  °F | °C
As of 6:52 PM on Saturday 25 Oct 2014 (Local Time) from KPYM Reporting Station
Clear Clear  
Wind Chill: 56°   Ceiling: Unl
Heat Index: 56°   Visibility: 10mi
Dew Point: 44°   Wind: 8mph
Humidity: 64%   Direction: 220°SW
Pressure: 29.61"   Gusts: NA
Location:  42.04°N, 70.67°W
Report Text: KPYM 252252Z AUTO 22007KT 10SM CLR 13/07 A2961 RMK AO2 SLP028 T01330067
Loading
Personal Weather Stations






























Interactive Weather Map New forecast layout! Learn more

10-Day Weather Forecast

Advertisements
Track Severe Weather on mobile